Time;durP1;ratioP1;P1;durP2;ratioP2;P2;SDS_P1;SDS_P2;PMS_P1;PMS_P2;Temp;Humidity;BMP_temperature;BMP_pressure;BME280_temperature;BME280_humidity;BME280_pressure;Samples;Min_cycle;Max_cycle;Signal;HPM_P1;HPM_P2
2022/06/28 00:00:34;;;;;;;6.00;1.98;;;18.90;70.80;;;;;;4703140;30;20064;-73
2022/06/28 00:03:00;;;;;;;6.00;1.67;;;18.90;70.80;;;;;;4701870;30;20127;-73
2022/06/28 00:05:26;;;;;;;6.80;2.10;;;18.90;70.70;;;;;;4702142;30;20348;-74
2022/06/28 00:07:51;;;;;;;5.20;1.73;;;18.80;70.70;;;;;;4702232;30;20042;-74
2022/06/28 00:10:17;;;;;;;5.57;1.85;;;18.90;70.80;;;;;;4702359;30;20512;-72
2022/06/28 00:12:43;;;;;;;4.43;1.60;;;18.80;70.70;;;;;;4701702;30;20203;-75
2022/06/28 00:17:57;;;;;;;5.38;1.50;;;18.80;70.60;;;;;;4702378;30;20104;-73
2022/06/28 00:20:23;;;;;;;4.32;1.42;;;18.80;70.60;;;;;;4702571;30;20053;-73
2022/06/28 00:22:48;;;;;;;4.00;1.38;;;18.90;70.60;;;;;;4702761;30;20455;-74
2022/06/28 00:25:14;;;;;;;5.35;1.50;;;18.80;70.50;;;;;;4702358;30;20053;-75
2022/06/28 00:27:41;;;;;;;8.25;1.75;;;18.80;70.60;;;;;;4702392;30;20513;-73
2022/06/28 00:30:08;;;;;;;3.95;1.40;;;18.80;70.60;;;;;;4702506;30;20069;-73
2022/06/28 00:32:34;;;;;;;4.82;1.33;;;18.80;70.60;;;;;;4690239;30;20058;-73
2022/06/28 00:35:00;;;;;;;5.40;1.85;;;18.80;70.60;;;;;;4683715;30;20054;-73
2022/06/28 00:37:27;;;;;;;5.88;1.60;;;18.80;70.60;;;;;;4684904;30;20126;-73
2022/06/28 00:39:52;;;;;;;4.13;1.45;;;18.70;70.50;;;;;;4698069;30;20487;-75
2022/06/28 00:42:18;;;;;;;4.65;1.55;;;18.70;70.40;;;;;;4684978;30;20134;-74
2022/06/28 00:44:45;;;;;;;3.28;0.90;;;18.80;70.50;;;;;;4684759;30;20345;-74
2022/06/28 00:47:11;;;;;;;3.30;1.00;;;18.80;70.50;;;;;;4684571;30;20054;-74
2022/06/28 00:49:40;;;;;;;8.10;2.13;;;18.70;70.40;;;;;;4684783;30;20468;-74
2022/06/28 00:52:07;;;;;;;4.20;1.25;;;18.70;70.40;;;;;;4684717;30;20509;-73
2022/06/28 00:54:33;;;;;;;9.68;1.63;;;18.70;70.50;;;;;;4684906;30;20127;-73
2022/06/28 00:56:59;;;;;;;7.65;1.23;;;18.70;70.40;;;;;;4684951;30;20054;-74
2022/06/28 00:59:25;;;;;;;4.88;1.25;;;18.70;70.40;;;;;;4684811;30;20050;-73
2022/06/28 01:01:51;;;;;;;5.30;1.27;;;18.70;70.40;;;;;;4690489;30;20056;-73
2022/06/28 01:04:17;;;;;;;2.78;1.00;;;18.70;70.40;;;;;;4701746;30;20131;-73
2022/06/28 01:06:43;;;;;;;3.60;1.15;;;18.70;70.40;;;;;;4701720;30;20053;-73
2022/06/28 01:09:08;;;;;;;4.55;1.42;;;18.70;70.50;;;;;;4701636;30;20061;-72
2022/06/28 01:11:34;;;;;;;4.00;1.20;;;18.70;70.50;;;;;;4701911;30;20144;-72
2022/06/28 01:14:03;;;;;;;5.72;1.42;;;18.70;70.70;;;;;;4701980;30;20123;-73
2022/06/28 01:16:30;;;;;;;5.70;1.40;;;18.70;70.70;;;;;;4701884;30;20057;-73
2022/06/28 01:18:56;;;;;;;4.25;1.40;;;18.70;70.80;;;;;;4702308;30;20053;-74
2022/06/28 01:21:26;;;;;;;5.22;1.30;;;18.70;70.80;;;;;;4701804;30;20057;-72
2022/06/28 01:23:52;;;;;;;7.50;1.38;;;18.70;70.90;;;;;;4702141;30;20049;-73
2022/06/28 01:26:21;;;;;;;5.65;1.45;;;18.70;71.00;;;;;;4701536;30;20355;-74
2022/06/28 01:28:51;;;;;;;4.97;1.15;;;18.70;71.00;;;;;;4701282;30;20069;-73
2022/06/28 01:31:19;;;;;;;4.63;2.00;;;18.70;71.00;;;;;;4693465;30;20141;-73
2022/06/28 01:33:45;;;;;;;5.10;1.80;;;18.70;71.10;;;;;;4696594;30;20151;-73
2022/06/28 01:36:11;;;;;;;6.88;1.65;;;18.70;71.10;;;;;;4702256;30;20060;-76
2022/06/28 01:38:38;;;;;;;7.18;1.33;;;18.70;71.20;;;;;;4701863;30;20446;-72
2022/06/28 01:41:05;;;;;;;7.13;1.40;;;18.70;71.20;;;;;;4701034;30;20054;-72
2022/06/28 01:43:32;;;;;;;4.38;1.20;;;18.70;71.20;;;;;;4701848;30;20062;-73
2022/06/28 01:45:59;;;;;;;7.63;1.92;;;18.70;71.80;;;;;;4702346;30;20135;-73
2022/06/28 01:48:25;;;;;;;6.45;1.60;;;18.70;71.20;;;;;;4702224;30;20057;-73
2022/06/28 01:50:54;;;;;;;5.80;1.77;;;18.60;71.10;;;;;;4704770;30;20140;-73
2022/06/28 01:53:21;;;;;;;9.68;1.88;;;18.70;71.20;;;;;;4705210;30;20058;-73
2022/06/28 01:55:47;;;;;;;9.25;1.98;;;18.70;71.30;;;;;;4704991;30;20115;-73
2022/06/28 01:58:13;;;;;;;5.53;1.58;;;18.70;71.30;;;;;;4704050;30;20084;-75
2022/06/28 02:00:39;;;;;;;7.45;1.67;;;18.70;71.20;;;;;;4704350;30;20067;-74
2022/06/28 02:03:05;;;;;;;7.97;1.75;;;18.70;71.20;;;;;;4703040;30;20057;-73
2022/06/28 02:05:32;;;;;;;6.13;1.50;;;18.70;71.20;;;;;;4704394;30;20069;-73
2022/06/28 02:07:58;;;;;;;8.00;1.83;;;18.70;71.20;;;;;;4704052;30;20140;-73
2022/06/28 02:10:24;;;;;;;5.32;1.40;;;18.60;71.10;;;;;;4704304;30;20065;-74
2022/06/28 02:12:50;;;;;;;6.13;1.42;;;18.70;71.20;;;;;;4703986;30;20046;-73
2022/06/28 02:15:16;;;;;;;7.32;1.42;;;18.60;71.20;;;;;;4704730;30;20191;-73
2022/06/28 02:17:43;;;;;;;5.45;1.50;;;18.60;71.20;;;;;;4704311;30;20112;-73
2022/06/28 02:20:10;;;;;;;6.45;1.60;;;18.60;71.30;;;;;;4704181;30;20461;-72
2022/06/28 02:22:36;;;;;;;5.05;2.05;;;18.60;71.30;;;;;;4704422;30;20067;-74
2022/06/28 02:25:02;;;;;;;6.93;1.80;;;18.60;71.30;;;;;;4703995;30;20057;-75
2022/06/28 02:27:28;;;;;;;4.97;1.25;;;18.60;71.30;;;;;;4703816;30;20064;-73
2022/06/28 02:29:54;;;;;;;9.07;1.95;;;18.60;71.20;;;;;;4703872;30;20076;-72
2022/06/28 02:32:20;;;;;;;4.93;1.42;;;18.70;71.20;;;;;;4704092;30;20057;-73
2022/06/28 02:40:24;;;;;;;4.70;1.35;;;18.60;71.10;;;;;;4704514;30;20065;-74
2022/06/28 02:42:52;;;;;;;6.43;1.40;;;18.60;71.10;;;;;;4703738;30;20478;-73
2022/06/28 02:45:18;;;;;;;6.57;2.20;;;18.60;71.10;;;;;;4703704;30;20137;-72
2022/06/28 02:47:44;;;;;;;3.03;1.05;;;18.60;71.10;;;;;;4703955;30;20053;-72
2022/06/28 02:50:10;;;;;;;4.97;1.50;;;18.60;71.10;;;;;;4703590;30;20602;-73
2022/06/28 02:52:36;;;;;;;3.17;0.85;;;18.60;71.10;;;;;;4703611;30;20136;-73
2022/06/28 02:55:03;;;;;;;6.57;1.67;;;18.60;71.00;;;;;;4703648;30;20069;-72
2022/06/28 02:57:29;;;;;;;9.13;1.13;;;18.60;71.00;;;;;;4702455;30;20061;-74
2022/06/28 02:59:55;;;;;;;3.60;0.70;;;18.60;71.00;;;;;;4703624;30;20080;-73
2022/06/28 03:02:21;;;;;;;7.38;0.90;;;18.60;71.10;;;;;;4703048;30;20049;-73
2022/06/28 03:04:47;;;;;;;3.13;1.02;;;18.60;71.00;;;;;;4703780;30;20068;-72
2022/06/28 03:07:12;;;;;;;3.17;1.05;;;18.60;71.10;;;;;;4703437;30;20434;-72
2022/06/28 03:09:38;;;;;;;2.60;0.82;;;18.50;71.00;;;;;;4703372;30;20379;-72
2022/06/28 03:12:06;;;;;;;5.97;1.45;;;18.60;71.00;;;;;;4703534;30;20445;-73
2022/06/28 03:14:32;;;;;;;4.63;0.60;;;18.50;71.00;;;;;;4703140;30;20049;-74
2022/06/28 03:16:58;;;;;;;3.55;0.75;;;18.60;71.00;;;;;;4703424;30;20053;-72
2022/06/28 03:19:24;;;;;;;5.18;0.98;;;18.50;71.00;;;;;;4702457;30;20126;-74
2022/06/28 03:21:50;;;;;;;3.45;0.77;;;18.60;71.00;;;;;;4702521;30;20058;-74
2022/06/28 03:24:16;;;;;;;5.32;0.80;;;18.50;70.90;;;;;;4703098;30;20057;-73
2022/06/28 03:26:42;;;;;;;4.15;0.80;;;18.50;70.80;;;;;;4703158;30;20053;-74
2022/06/28 03:29:08;;;;;;;3.22;0.90;;;18.50;70.70;;;;;;4702413;30;20140;-73
2022/06/28 03:31:34;;;;;;;6.68;0.95;;;18.50;70.50;;;;;;4702652;30;20192;-75
2022/06/28 03:34:00;;;;;;;2.50;0.65;;;18.50;70.50;;;;;;4702917;30;20089;-72
2022/06/28 03:36:25;;;;;;;3.15;0.90;;;18.50;70.50;;;;;;4702472;30;20061;-73
2022/06/28 03:38:51;;;;;;;5.35;1.10;;;18.50;70.60;;;;;;4702858;30;20132;-73
2022/06/28 03:41:22;;;;;;;2.85;0.77;;;18.50;70.60;;;;;;4702973;30;20053;-75
2022/06/28 03:43:52;;;;;;;4.38;1.10;;;18.50;70.70;;;;;;4702735;30;20054;-74
2022/06/28 03:46:19;;;;;;;3.63;0.77;;;18.50;70.70;;;;;;4702809;30;20162;-74
2022/06/28 03:48:46;;;;;;;6.25;0.95;;;18.50;70.60;;;;;;4702493;30;20049;-73
2022/06/28 04:14:23;;;;;;;3.67;0.73;;;18.50;71.00;;;;;;4739709;30;20416;-71
2022/06/28 04:16:49;;;;;;;3.60;0.90;;;18.50;71.10;;;;;;4754447;30;20060;-73
2022/06/28 04:19:14;;;;;;;3.15;0.60;;;18.50;71.20;;;;;;4754437;30;20487;-71
2022/06/28 04:21:40;;;;;;;4.13;0.68;;;18.60;71.20;;;;;;4751274;30;20472;-71
2022/06/28 04:24:06;;;;;;;7.40;0.65;;;18.60;71.20;;;;;;4754576;30;20051;-71
2022/06/28 04:26:32;;;;;;;2.20;0.45;;;18.70;71.30;;;;;;4759693;30;20404;-71
2022/06/28 04:28:58;;;;;;;1.85;0.50;;;18.70;71.30;;;;;;4767960;30;20087;-72
2022/06/28 04:31:23;;;;;;;9.43;0.73;;;18.80;71.30;;;;;;4754584;30;20056;-72
2022/06/28 04:33:49;;;;;;;3.10;0.73;;;18.80;71.40;;;;;;4754055;30;20135;-71
2022/06/28 04:36:15;;;;;;;2.15;0.47;;;18.80;71.40;;;;;;4754232;30;20341;-72
2022/06/28 04:38:40;;;;;;;1.85;0.40;;;18.90;71.50;;;;;;4754046;30;20056;-71
2022/06/28 04:41:06;;;;;;;3.38;0.77;;;18.90;71.40;;;;;;4754596;30;20131;-71
2022/06/28 04:43:32;;;;;;;5.38;0.47;;;18.90;71.40;;;;;;4754031;30;20052;-71
2022/06/28 04:45:59;;;;;;;3.67;0.75;;;18.90;71.40;;;;;;4748731;30;20161;-74
2022/06/28 04:48:25;;;;;;;2.08;0.30;;;19.00;71.50;;;;;;4754071;30;20060;-70
2022/06/28 04:50:50;;;;;;;2.97;0.43;;;19.00;71.40;;;;;;4756758;30;20055;-71
2022/06/28 04:53:16;;;;;;;4.43;0.90;;;19.00;71.40;;;;;;4771873;30;20048;-71
2022/06/28 04:55:42;;;;;;;1.80;0.60;;;19.10;71.40;;;;;;4761428;30;20052;-70
2022/06/28 04:58:08;;;;;;;12.00;0.80;;;19.10;71.50;;;;;;4754267;30;20058;-70
2022/06/28 05:00:34;;;;;;;4.05;0.63;;;19.10;71.50;;;;;;4754293;30;20084;-70
2022/06/28 05:02:59;;;;;;;3.30;0.90;;;19.20;71.60;;;;;;4753967;30;20063;-72
2022/06/28 05:05:25;;;;;;;6.22;0.77;;;19.20;71.40;;;;;;4754579;30;20077;-70
2022/06/28 05:07:51;;;;;;;5.10;0.70;;;19.20;71.30;;;;;;4750507;30;20408;-74
2022/06/28 05:10:17;;;;;;;3.45;0.70;;;19.10;71.30;;;;;;4741474;30;20133;-71
2022/06/28 05:12:43;;;;;;;4.53;0.70;;;19.20;71.40;;;;;;4766069;30;20122;-77
2022/06/28 05:15:09;;;;;;;4.53;0.80;;;19.10;71.50;;;;;;4771080;30;20059;-72
2022/06/28 05:17:35;;;;;;;4.30;1.00;;;19.20;71.50;;;;;;4754160;30;20052;-73
2022/06/28 05:20:02;;;;;;;5.22;0.95;;;19.10;71.70;;;;;;4739441;30;20135;-72
2022/06/28 05:22:28;;;;;;;9.48;1.23;;;19.10;71.70;;;;;;4757629;30;20140;-71
2022/06/28 05:24:54;;;;;;;7.00;1.40;;;19.20;71.80;;;;;;4757624;30;20139;-71
2022/06/28 05:27:20;;;;;;;6.25;1.02;;;19.20;71.90;;;;;;4757330;30;20063;-70
2022/06/28 05:29:46;;;;;;;6.93;1.40;;;19.20;71.90;;;;;;4758114;30;20469;-70
2022/06/28 05:32:12;;;;;;;8.35;0.75;;;19.20;71.90;;;;;;4757313;30;20052;-73
2022/06/28 05:34:38;;;;;;;6.82;0.85;;;19.20;71.90;;;;;;4757186;30;20074;-72
2022/06/28 05:37:05;;;;;;;6.97;1.40;;;19.20;71.90;;;;;;4757239;30;20052;-73
2022/06/28 05:39:31;;;;;;;4.68;1.23;;;19.30;72.10;;;;;;4757445;30;20059;-72
2022/06/28 05:41:58;;;;;;;4.35;0.85;;;19.30;72.00;;;;;;4757264;30;20063;-72
2022/06/28 05:44:26;;;;;;;7.57;1.10;;;19.30;72.10;;;;;;4757315;30;20056;-71
2022/06/28 05:46:52;;;;;;;8.23;1.10;;;19.30;72.80;;;;;;4747443;30;20081;-70
2022/06/28 05:49:18;;;;;;;9.25;1.30;;;19.30;72.10;;;;;;4756096;30;20172;-70
2022/06/28 05:51:44;;;;;;;7.90;1.13;;;19.30;72.70;;;;;;4746006;30;20056;-70
2022/06/28 05:54:09;;;;;;;9.68;1.63;;;19.40;72.10;;;;;;4753477;30;20124;-71
2022/06/28 05:56:36;;;;;;;12.80;2.15;;;19.40;72.30;;;;;;4739345;30;20052;-71
2022/06/28 05:59:04;;;;;;;10.65;2.00;;;19.40;72.30;;;;;;4739443;30;20060;-71
2022/06/28 06:01:30;;;;;;;7.18;1.20;;;19.40;72.30;;;;;;4743941;30;20056;-71
2022/06/28 06:03:57;;;;;;;5.75;1.33;;;19.40;72.20;;;;;;4754307;30;20048;-71
2022/06/28 06:06:24;;;;;;;8.32;1.45;;;19.40;72.10;;;;;;4755959;30;20125;-72
2022/06/28 06:08:51;;;;;;;12.32;1.58;;;19.40;72.10;;;;;;4757078;30;20060;-71
2022/06/28 06:11:17;;;;;;;10.35;1.70;;;19.50;72.20;;;;;;4741297;30;20431;-73
2022/06/28 06:13:43;;;;;;;13.43;2.15;;;19.50;72.50;;;;;;4742290;30;20060;-72
2022/06/28 06:16:09;;;;;;;9.65;1.58;;;19.60;72.80;;;;;;4754887;30;20069;-70
2022/06/28 06:18:34;;;;;;;10.50;1.48;;;19.60;72.70;;;;;;4738779;30;20045;-74
2022/06/28 06:21:00;;;;;;;14.52;2.03;;;19.60;72.40;;;;;;4739210;30;20057;-75
2022/06/28 06:23:26;;;;;;;9.98;1.52;;;19.60;71.80;;;;;;4750147;30;20456;-79
2022/06/28 06:25:55;;;;;;;8.68;1.65;;;19.60;71.30;;;;;;4751892;30;20056;-79
2022/06/28 06:28:21;;;;;;;7.18;1.58;;;19.60;71.40;;;;;;4748440;30;20147;-74
2022/06/28 06:30:47;;;;;;;9.52;1.50;;;19.50;71.20;;;;;;4738786;30;20045;-76
2022/06/28 06:33:12;;;;;;;6.50;1.35;;;19.50;71.50;;;;;;4737828;30;20102;-74
2022/06/28 06:35:38;;;;;;;6.32;1.50;;;19.50;71.40;;;;;;4739677;30;20088;-71
2022/06/28 06:38:04;;;;;;;9.73;2.30;;;19.40;71.30;;;;;;4738892;30;20060;-70
2022/06/28 06:40:31;;;;;;;7.38;1.23;;;19.40;71.40;;;;;;4751162;30;20063;-70
2022/06/28 06:42:57;;;;;;;6.22;1.45;;;19.40;71.50;;;;;;4756100;30;20051;-70
2022/06/28 06:45:23;;;;;;;6.07;1.30;;;19.40;71.40;;;;;;4756468;30;20066;-70
2022/06/28 06:47:49;;;;;;;6.65;1.10;;;19.40;71.30;;;;;;4740050;30;20053;-70
2022/06/28 06:50:15;;;;;;;6.10;1.15;;;19.50;71.30;;;;;;4738500;30;20094;-70
2022/06/28 06:52:41;;;;;;;7.05;1.30;;;19.50;71.30;;;;;;4741516;30;20099;-70
2022/06/28 06:55:08;;;;;;;8.55;1.70;;;19.50;71.30;;;;;;4738533;30;20137;-70
2022/06/28 06:57:34;;;;;;;6.18;1.20;;;19.50;71.10;;;;;;4738393;30;20053;-70
2022/06/28 07:00:00;;;;;;;7.10;1.35;;;19.50;71.00;;;;;;4738141;30;20056;-70
2022/06/28 07:02:26;;;;;;;8.48;1.45;;;19.50;70.80;;;;;;4738185;30;20056;-75
2022/06/28 07:04:51;;;;;;;5.30;0.90;;;19.50;70.60;;;;;;4737290;30;20067;-77
2022/06/28 07:07:18;;;;;;;6.30;1.42;;;19.50;70.70;;;;;;4722609;30;20060;-69
2022/06/28 07:09:43;;;;;;;6.95;1.20;;;19.50;70.60;;;;;;4751495;30;20056;-71
2022/06/28 07:12:09;;;;;;;6.93;1.35;;;19.50;70.60;;;;;;4746094;30;20443;-70
2022/06/28 07:14:35;;;;;;;11.57;2.13;;;19.60;70.50;;;;;;4737496;30;20072;-72
2022/06/28 07:17:01;;;;;;;8.73;1.58;;;19.60;69.50;;;;;;4737454;30;20369;-70
2022/06/28 07:19:27;;;;;;;8.82;1.45;;;19.60;69.60;;;;;;4743405;30;20518;-73
2022/06/28 07:21:52;;;;;;;5.65;1.42;;;19.60;69.60;;;;;;4764793;30;20048;-75
2022/06/28 07:24:18;;;;;;;9.07;1.40;;;19.50;69.30;;;;;;4748747;30;20119;-73
2022/06/28 07:26:44;;;;;;;5.70;1.00;;;19.50;69.20;;;;;;4737665;30;20128;-74
2022/06/28 07:29:11;;;;;;;7.07;1.17;;;19.50;69.50;;;;;;4736119;30;20063;-71
2022/06/28 07:31:37;;;;;;;7.78;1.33;;;19.50;69.50;;;;;;4736634;30;20059;-73
2022/06/28 07:34:02;;;;;;;6.65;1.70;;;19.60;68.70;;;;;;4743232;30;20131;-79
2022/06/28 07:36:28;;;;;;;6.75;1.50;;;19.60;68.00;;;;;;4754305;30;20058;-73
2022/06/28 07:38:54;;;;;;;6.45;1.60;;;19.60;67.70;;;;;;4755066;30;20118;-76
2022/06/28 07:41:21;;;;;;;7.03;1.27;;;19.70;67.40;;;;;;4753125;30;20040;-75
2022/06/28 07:43:50;;;;;;;6.93;1.73;;;19.60;67.30;;;;;;4754736;30;20063;-74
2022/06/28 07:46:20;;;;;;;9.75;1.55;;;19.60;67.10;;;;;;4755011;30;20081;-74
2022/06/28 07:48:46;;;;;;;7.03;1.60;;;19.50;66.70;;;;;;4754565;30;20135;-74
2022/06/28 07:53:57;;;;;;;5.32;1.90;;;19.60;64.90;;;;;;4743918;30;20061;-75
2022/06/28 07:56:23;;;;;;;7.63;1.48;;;19.60;64.80;;;;;;4746485;30;20044;-72
2022/06/28 07:58:49;;;;;;;4.32;1.35;;;19.60;64.70;;;;;;4754591;30;20044;-72
2022/06/28 08:01:15;;;;;;;12.43;1.75;;;19.60;64.60;;;;;;4751395;30;20060;-71
2022/06/28 08:03:41;;;;;;;7.45;1.77;;;19.70;64.80;;;;;;4737486;30;20063;-70
2022/06/28 08:06:07;;;;;;;7.15;2.33;;;19.70;65.00;;;;;;4751372;30;20061;-72
2022/06/28 08:08:33;;;;;;;8.10;1.50;;;19.70;64.90;;;;;;4737087;30;20053;-72
2022/06/28 08:10:59;;;;;;;5.90;1.60;;;19.80;64.30;;;;;;4723542;30;20416;-72
2022/06/28 08:13:25;;;;;;;8.77;1.80;;;19.90;64.40;;;;;;4752771;30;20131;-72
2022/06/28 08:15:51;;;;;;;5.35;1.10;;;19.90;63.80;;;;;;4738972;30;20052;-74
2022/06/28 08:18:17;;;;;;;4.32;1.13;;;20.00;62.60;;;;;;4751658;30;20063;-71
2022/06/28 08:20:43;;;;;;;5.00;1.25;;;20.00;61.30;;;;;;4736856;30;20056;-74
2022/06/28 08:23:09;;;;;;;6.18;1.33;;;20.00;60.60;;;;;;4738028;30;20051;-71
2022/06/28 08:25:35;;;;;;;3.40;0.98;;;19.90;60.10;;;;;;4753956;30;20360;-73
2022/06/28 08:28:02;;;;;;;5.03;1.00;;;20.00;60.20;;;;;;4736858;30;20087;-71
2022/06/28 08:30:27;;;;;;;5.95;1.00;;;20.00;60.80;;;;;;4754301;30;20066;-75
2022/06/28 08:32:54;;;;;;;6.57;1.50;;;20.10;60.70;;;;;;4753872;30;20059;-72
2022/06/28 08:35:20;;;;;;;4.47;0.80;;;20.10;61.80;;;;;;4754558;30;20079;-71
2022/06/28 08:37:47;;;;;;;5.10;1.17;;;20.10;60.20;;;;;;4754284;30;20094;-71
2022/06/28 08:40:13;;;;;;;5.50;1.02;;;20.10;60.20;;;;;;4754252;30;20349;-72
2022/06/28 08:42:47;;;;;;;5.82;1.17;;;20.10;61.10;;;;;;4754038;30;20120;-72
2022/06/28 08:45:15;;;;;;;5.05;0.90;;;20.20;61.20;;;;;;4746454;30;20533;-72
2022/06/28 08:47:42;;;;;;;5.35;0.93;;;20.20;60.60;;;;;;4742827;30;20048;-73
2022/06/28 08:50:14;;;;;;;7.80;1.20;;;20.30;60.80;;;;;;4747354;30;20072;-73
2022/06/28 08:52:43;;;;;;;5.90;1.00;;;20.30;59.70;;;;;;4736712;30;20071;-71
2022/06/28 08:55:09;;;;;;;5.10;0.90;;;20.30;60.10;;;;;;4738475;30;20064;-71
2022/06/28 08:57:37;;;;;;;6.15;1.38;;;20.40;58.30;;;;;;4742138;30;20088;-73
2022/06/28 09:00:08;;;;;;;4.35;0.82;;;20.30;59.60;;;;;;4745064;30;20354;-71
2022/06/28 09:02:34;;;;;;;5.60;0.70;;;20.40;58.90;;;;;;4754638;30;20048;-75
2022/06/28 09:05:01;;;;;;;4.07;0.90;;;20.50;58.50;;;;;;4731019;30;20063;-72
2022/06/28 09:07:29;;;;;;;4.00;0.93;;;20.50;58.70;;;;;;4743565;30;20056;-73
2022/06/28 09:09:55;;;;;;;4.05;1.20;;;20.60;57.30;;;;;;4768596;30;20087;-74
2022/06/28 09:12:21;;;;;;;1.98;0.70;;;20.60;57.20;;;;;;4770702;30;20091;-73
2022/06/28 09:14:47;;;;;;;6.10;0.70;;;20.70;57.50;;;;;;4743548;30;20059;-74
2022/06/28 09:17:17;;;;;;;5.22;0.80;;;20.60;57.70;;;;;;4733112;30;20056;-74
2022/06/28 09:19:43;;;;;;;4.05;0.93;;;20.60;58.10;;;;;;4742482;30;20465;-73
2022/06/28 09:22:09;;;;;;;4.10;1.23;;;20.60;58.50;;;;;;4741915;30;20049;-74
2022/06/28 09:24:35;;;;;;;5.43;0.88;;;20.60;58.90;;;;;;4756218;30;20048;-72
2022/06/28 09:27:06;;;;;;;4.63;1.15;;;20.60;58.90;;;;;;4742235;30;20045;-72
2022/06/28 09:29:49;;;;;;;4.90;0.70;;;20.70;59.20;;;;;;4742052;30;20106;-72
2022/06/28 09:32:16;;;;;;;6.20;0.80;;;20.70;58.90;;;;;;4739169;30;20056;-73
2022/06/28 09:34:57;;;;;;;6.88;1.33;;;20.70;57.20;;;;;;4752009;30;20444;-72
2022/06/28 09:37:37;;;;;;;5.25;0.50;;;20.70;57.60;;;;;;4760405;30;20349;-74
2022/06/28 09:40:29;;;;;;;2.67;0.63;;;20.70;57.50;;;;;;4758809;30;20115;-74
2022/06/28 09:43:10;;;;;;;4.95;1.10;;;20.70;58.50;;;;;;4747917;30;20056;-71
2022/06/28 09:45:39;;;;;;;2.58;0.70;;;20.70;58.60;;;;;;4741970;30;20052;-71
2022/06/28 09:48:05;;;;;;;3.25;0.75;;;20.70;58.50;;;;;;4752138;30;20133;-73
2022/06/28 09:50:34;;;;;;;10.40;1.13;;;20.70;58.40;;;;;;4748288;30;20098;-71
2022/06/28 09:53:02;;;;;;;2.88;0.77;;;20.70;58.50;;;;;;4759441;30;20055;-74
2022/06/28 09:55:30;;;;;;;4.03;1.20;;;20.70;58.20;;;;;;4759547;30;20143;-72
2022/06/28 09:57:58;;;;;;;4.68;1.08;;;20.70;58.10;;;;;;4742187;30;20053;-74
2022/06/28 10:00:24;;;;;;;3.80;1.08;;;20.70;58.90;;;;;;4741945;30;20145;-72
2022/06/28 10:02:54;;;;;;;6.45;1.10;;;20.70;58.60;;;;;;4757179;30;20439;-72
2022/06/28 10:05:20;;;;;;;5.88;1.52;;;20.80;59.10;;;;;;4759316;30;20074;-72
2022/06/28 10:07:46;;;;;;;4.43;0.90;;;20.80;59.40;;;;;;4755724;30;20052;-72
2022/06/28 10:10:13;;;;;;;4.38;1.42;;;20.80;59.10;;;;;;4756348;30;20046;-72
2022/06/28 10:15:35;;;;;;;4.97;1.40;;;20.80;60.10;;;;;;4756472;30;20147;-72
2022/06/28 10:18:20;;;;;;;6.82;1.73;;;20.90;60.40;;;;;;4740364;30;20067;-74
2022/06/28 10:20:47;;;;;;;5.55;0.90;;;20.90;60.60;;;;;;4756249;30;20369;-73
2022/06/28 10:23:24;;;;;;;4.35;0.90;;;21.00;60.70;;;;;;4756519;30;20040;-73
2022/06/28 10:26:18;;;;;;;4.10;1.08;;;21.00;61.00;;;;;;4755833;30;20709;-73
2022/06/28 10:29:02;;;;;;;5.15;1.10;;;21.00;61.10;;;;;;4756334;30;20060;-72
2022/06/28 10:31:30;;;;;;;5.43;1.38;;;21.00;60.80;;;;;;4756528;30;20060;-74
2022/06/28 10:33:59;;;;;;;4.72;1.17;;;21.00;59.90;;;;;;4741116;30;20064;-74
2022/06/28 10:36:27;;;;;;;4.30;0.63;;;20.90;59.30;;;;;;4756000;30;20372;-73
2022/06/28 10:39:07;;;;;;;3.15;0.70;;;20.90;58.70;;;;;;4756307;30;20409;-75
2022/06/28 10:41:37;;;;;;;2.00;0.57;;;20.80;58.20;;;;;;4755427;30;20121;-74
2022/06/28 10:44:20;;;;;;;2.47;1.05;;;20.80;59.10;;;;;;4756244;30;20064;-73
2022/06/28 10:47:16;;;;;;;5.28;0.93;;;20.80;59.50;;;;;;4756444;30;20107;-72
2022/06/28 10:50:00;;;;;;;4.88;1.02;;;20.90;60.10;;;;;;4725431;30;20064;-76
2022/06/28 10:52:34;;;;;;;7.63;1.60;;;20.90;60.00;;;;;;4738110;30;20134;-71
2022/06/28 10:55:02;;;;;;;;;;;21.00;60.10;;;;;;4748491;30;20080;-73
2022/06/28 10:57:39;;;;;;;3.97;0.80;;;21.00;60.20;;;;;;4754838;30;20401;-73
2022/06/28 11:00:05;;;;;;;6.55;0.98;;;21.00;60.30;;;;;;4752862;30;20086;-72
2022/06/28 11:02:59;;;;;;;5.55;0.93;;;21.00;60.60;;;;;;4745752;30;20052;-73
2022/06/28 11:05:43;;;;;;;;;;;21.00;61.00;;;;;;4756272;30;20060;-72
2022/06/28 11:08:11;;;;;;;;;;;21.00;61.20;;;;;;4740482;30;19933;-73
2022/06/28 11:10:37;;;;;;;6.57;1.27;;;21.00;61.30;;;;;;4739159;30;19992;-73
2022/06/28 11:13:20;;;;;;;3.50;0.75;;;21.00;61.30;;;;;;4755652;30;20056;-73
2022/06/28 11:15:45;;;;;;;3.72;0.68;;;21.00;61.30;;;;;;4739531;30;20052;-73
2022/06/28 11:18:15;;;;;;;3.25;1.15;;;21.00;61.40;;;;;;4755385;30;20078;-74
2022/06/28 11:20:41;;;;;;;4.97;0.60;;;21.10;61.70;;;;;;4755841;30;20064;-72
2022/06/28 11:23:08;;;;;;;3.58;0.73;;;21.10;61.80;;;;;;4754824;30;20067;-74
2022/06/28 11:28:21;;;;;;;1.63;0.57;;;21.10;62.10;;;;;;4755587;30;20048;-75
2022/06/28 11:30:47;;;;;;;5.75;0.80;;;21.10;62.30;;;;;;4739349;30;20048;-72
2022/06/28 11:33:16;;;;;;;5.10;1.23;;;21.10;62.40;;;;;;4755496;30;20060;-72
2022/06/28 11:35:41;;;;;;;2.65;0.75;;;21.10;62.50;;;;;;4754837;30;20135;-73
2022/06/28 11:38:10;;;;;;;11.65;1.08;;;21.10;62.60;;;;;;4755471;30;20147;-73
2022/06/28 11:40:40;;;;;;;1.90;0.45;;;21.10;62.70;;;;;;4755130;30;20098;-73
2022/06/28 11:43:08;;;;;;;3.67;0.93;;;21.10;62.80;;;;;;4755314;30;20464;-74
2022/06/28 11:45:41;;;;;;;3.25;0.98;;;21.10;62.80;;;;;;4755894;30;20052;-73
2022/06/28 11:48:29;;;;;;;1.45;0.52;;;21.10;62.80;;;;;;4755463;30;20085;-73
2022/06/28 11:50:57;;;;;;;1.92;0.52;;;21.10;62.90;;;;;;4739162;30;20052;-73
2022/06/28 11:53:24;;;;;;;2.10;0.45;;;21.10;63.00;;;;;;4738641;30;20063;-73
2022/06/28 11:55:51;;;;;;;4.32;1.08;;;21.10;63.00;;;;;;4754587;30;20087;-73
2022/06/28 11:58:19;;;;;;;4.53;0.57;;;21.10;63.00;;;;;;4754017;30;20388;-72
2022/06/28 12:01:09;;;;;;;4.82;0.77;;;21.10;63.00;;;;;;4754889;30;20056;-72
2022/06/28 12:03:44;;;;;;;2.88;0.85;;;21.10;63.10;;;;;;4739508;30;20350;-74
2022/06/28 12:06:22;;;;;;;2.75;0.73;;;21.10;63.10;;;;;;4739081;30;20067;-74
2022/06/28 12:08:53;;;;;;;2.25;0.70;;;21.10;63.10;;;;;;4755015;30;20071;-73
2022/06/28 12:11:30;;;;;;;2.83;0.70;;;21.10;63.00;;;;;;4739723;30;20056;-73
2022/06/28 12:14:03;;;;;;;3.08;0.57;;;21.10;63.10;;;;;;4724794;30;20473;-73
2022/06/28 12:16:34;;;;;;;4.35;1.08;;;21.10;63.20;;;;;;4754566;30;20384;-74
2022/06/28 12:19:01;;;;;;;3.60;0.65;;;21.10;63.20;;;;;;4738884;30;20139;-74
2022/06/28 12:21:28;;;;;;;2.97;0.60;;;21.10;63.30;;;;;;4754955;30;20396;-72
2022/06/28 12:23:56;;;;;;;4.20;0.70;;;21.10;63.30;;;;;;4754416;30;20059;-72
2022/06/28 12:26:42;;;;;;;5.40;0.95;;;21.10;63.30;;;;;;4754340;30;20055;-73
2022/06/28 12:29:09;;;;;;;5.43;0.70;;;21.10;62.00;;;;;;4753599;30;20378;-72
2022/06/28 14:52:55;;;;;;;14.20;1.30;;;21.50;53.80;;;;;;5607525;24;20048;-71
2022/06/28 17:26:38;;;;;;;4.68;1.52;;;22.10;63.40;;;;;;4741506;30;20056;-73
2022/06/28 17:29:04;;;;;;;6.60;1.50;;;22.10;63.40;;;;;;4756050;30;20060;-74
2022/06/28 17:31:30;;;;;;;6.05;1.45;;;22.10;63.10;;;;;;4755868;30;20129;-74
2022/06/28 17:33:56;;;;;;;4.40;1.10;;;22.20;62.40;;;;;;4755814;30;20440;-75
2022/06/28 17:36:22;;;;;;;5.32;1.45;;;22.10;61.10;;;;;;4757447;30;20117;-74
2022/06/28 17:38:48;;;;;;;2.88;1.05;;;22.20;60.90;;;;;;4757141;30;20056;-75
2022/06/28 17:41:14;;;;;;;9.65;1.48;;;22.10;60.80;;;;;;4757595;30;20067;-76
2022/06/28 17:43:40;;;;;;;9.40;1.00;;;22.10;61.00;;;;;;4756447;30;20147;-74
2022/06/28 17:46:06;;;;;;;9.27;1.38;;;22.00;61.40;;;;;;4757182;30;20063;-75
2022/06/28 17:48:32;;;;;;;11.23;1.40;;;22.00;61.10;;;;;;4757038;30;20129;-75
2022/06/28 17:50:58;;;;;;;15.40;1.40;;;22.00;61.60;;;;;;4757054;30;20052;-75
2022/06/28 17:53:24;;;;;;;9.38;1.50;;;22.00;61.80;;;;;;4757095;30;20442;-75
2022/06/28 17:55:49;;;;;;;8.45;1.60;;;22.00;62.80;;;;;;4757902;30;20507;-75
2022/06/28 17:58:15;;;;;;;5.32;0.95;;;22.00;62.50;;;;;;4757816;30;20084;-75
2022/06/28 18:00:41;;;;;;;3.00;1.17;;;22.00;62.80;;;;;;4757129;30;20071;-76
2022/06/28 18:03:07;;;;;;;6.28;1.10;;;22.00;63.00;;;;;;4756852;30;20060;-76
2022/06/28 18:05:33;;;;;;;4.65;1.15;;;21.90;63.10;;;;;;4770647;30;20432;-75
2022/06/28 18:08:00;;;;;;;7.70;1.38;;;22.00;63.10;;;;;;4756599;30;20461;-76
2022/06/28 18:10:25;;;;;;;5.70;1.33;;;21.90;62.30;;;;;;4756688;30;20056;-76
2022/06/28 18:12:51;;;;;;;6.50;1.30;;;21.90;61.90;;;;;;4756585;30;20059;-75
